Time,TemperatureF,DewpointF,PressureIn,WindDirection,WindDirectionDegrees,WindSpeedMPH,WindSpeedGustMPH,Humidity,HourlyPrecipIn,Conditions,Clouds,dailyrainin,SolarRadiationWatts/m^2,SoftwareType,DateUTC
2013-04-09 00:00:00,64.8,58.1,30.15,SE,146,0.0,0.0,79,0.00,,---,0.00,0.00,VWS V14.01,2013-04-09 04:00:00,
2013-04-09 00:02:00,64.7,58.0,30.15,SE,146,0.0,0.0,79,0.00,,---,0.00,0.00,VWS V14.01,2013-04-09 04:02:00,
2013-04-09 00:07:00,64.6,58.3,30.15,SE,146,0.0,0.0,80,0.00,,---,0.00,0.00,VWS V14.01,2013-04-09 04:07:00,
2013-04-09 00:12:00,64.4,58.1,30.15,SE,146,0.0,0.0,80,0.00,,---,0.00,0.00,VWS V14.01,2013-04-09 04:12:00,
2013-04-09 00:20:00,64.2,58.3,30.14,SE,146,0.0,0.0,81,0.00,,---,0.00,0.00,VWS V14.01,2013-04-09 04:20:00,
2013-04-09 00:25:00,64.0,58.1,30.15,SE,146,1.0,2.0,81,0.00,,---,0.00,0.00,VWS V14.01,2013-04-09 04:25:00,
2013-04-09 00:30:00,63.8,57.9,30.15,SE,146,0.0,0.0,81,0.00,,---,0.00,0.00,VWS V14.01,2013-04-09 04:30:00,
2013-04-09 00:35:00,63.7,58.1,30.15,SE,146,0.0,0.0,82,0.00,,---,0.00,0.00,VWS V14.01,2013-04-09 04:35:00,
2013-04-09 00:40:00,63.5,57.9,30.15,SE,146,0.0,0.0,82,0.00,,---,0.00,0.00,VWS V14.01,2013-04-09 04:40:00,
2013-04-09 00:45:00,63.3,57.7,30.15,SE,146,0.0,0.0,82,0.00,,---,0.00,0.00,VWS V14.01,2013-04-09 04:45:00,
2013-04-09 00:50:00,63.1,57.9,30.15,SE,146,0.0,0.0,83,0.00,,---,0.00,0.00,VWS V14.01,2013-04-09 04:50:00,
2013-04-09 00:56:00,62.9,57.7,30.15,SE,146,0.0,0.0,83,0.00,,---,0.00,0.00,VWS V14.01,2013-04-09 04:56:00,
2013-04-09 01:01:00,62.7,57.8,30.15,SE,146,0.0,0.0,84,0.00,,---,0.00,0.00,VWS V14.01,2013-04-09 05:01:00,
2013-04-09 01:07:00,62.5,57.6,30.15,SE,146,0.0,0.0,84,0.00,,---,0.00,0.00,VWS V14.01,2013-04-09 05:07:00,
2013-04-09 01:12:00,62.3,57.7,30.15,SE,146,0.0,0.0,85,0.00,,---,0.00,0.00,VWS V14.01,2013-04-09 05:12:00,
2013-04-09 01:17:00,62.2,57.6,30.15,SE,146,0.0,0.0,85,0.00,,---,0.00,0.00,VWS V14.01,2013-04-09 05:17:00,
2013-04-09 01:22:00,62.0,57.5,30.15,SE,146,0.0,0.0,85,0.00,,---,0.00,0.00,VWS V14.01,2013-04-09 05:22:00,
2013-04-09 01:27:00,61.9,57.3,30.15,SE,146,0.0,0.0,85,0.00,,---,0.00,0.00,VWS V14.01,2013-04-09 05:27:00,
2013-04-09 01:32:00,61.8,57.6,30.15,SE,146,0.0,0.0,86,0.00,,---,0.00,0.00,VWS V14.01,2013-04-09 05:32:00,
2013-04-09 01:37:00,61.7,57.5,30.15,SE,146,0.0,0.0,86,0.00,,---,0.00,0.00,VWS V14.01,2013-04-09 05:37:00,
2013-04-09 01:42:00,61.6,57.7,30.15,SE,146,0.0,0.0,87,0.00,,---,0.00,0.00,VWS V14.01,2013-04-09 05:42:00,
2013-04-09 01:47:00,61.4,57.5,30.15,SE,146,0.0,0.0,87,0.00,,---,0.00,0.00,VWS V14.01,2013-04-09 05:47:00,
2013-04-09 01:52:00,61.4,57.8,30.14,SE,146,0.0,0.0,88,0.00,,---,0.00,0.00,VWS V14.01,2013-04-09 05:52:00,
2013-04-09 01:57:00,61.2,57.6,30.15,SE,146,0.0,0.0,88,0.00,,---,0.00,0.00,VWS V14.01,2013-04-09 05:57:00,
2013-04-09 02:03:00,61.1,57.5,30.14,SE,146,0.0,0.0,88,0.00,,---,0.00,0.00,VWS V14.01,2013-04-09 06:03:00,
2013-04-09 02:08:00,60.8,57.2,30.14,SE,146,0.0,0.0,88,0.00,,---,0.00,0.00,VWS V14.01,2013-04-09 06:08:00,
2013-04-09 02:13:00,60.6,57.0,30.14,SE,146,0.0,0.0,88,0.00,,---,0.00,0.00,VWS V14.01,2013-04-09 06:13:00,
2013-04-09 02:18:00,60.4,56.8,30.14,SE,146,0.0,0.0,88,0.00,,---,0.00,0.00,VWS V14.01,2013-04-09 06:18:00,
2013-04-09 02:23:00,60.2,56.6,30.14,SE,146,0.0,0.0,88,0.00,,---,0.00,0.00,VWS V14.01,2013-04-09 06:23:00,
2013-04-09 02:28:00,60.0,56.4,30.14,SE,146,0.0,0.0,88,0.00,,---,0.00,0.00,VWS V14.01,2013-04-09 06:28:00,
2013-04-09 02:33:00,59.8,56.2,30.14,SE,146,0.0,0.0,88,0.00,,---,0.00,0.00,VWS V14.01,2013-04-09 06:33:00,
2013-04-09 02:38:00,59.6,56.0,30.14,SE,146,0.0,0.0,88,0.00,,---,0.00,0.00,VWS V14.01,2013-04-09 06:38:00,
2013-04-09 02:43:00,59.5,56.0,30.14,SE,146,0.0,0.0,88,0.00,,---,0.00,0.00,VWS V14.01,2013-04-09 06:43:00,
2013-04-09 02:48:00,59.3,55.8,30.13,SE,146,0.0,0.0,88,0.00,,---,0.00,0.00,VWS V14.01,2013-04-09 06:48:00,
2013-04-09 02:54:00,59.1,55.9,30.13,SE,146,0.0,0.0,89,0.00,,---,0.00,0.00,VWS V14.01,2013-04-09 06:54:00,
2013-04-09 02:59:00,59.1,56.5,30.13,SE,146,0.0,0.0,91,0.00,,---,0.00,0.00,VWS V14.01,2013-04-09 06:59:00,
2013-04-09 03:05:00,59.2,56.6,30.12,SE,146,0.0,0.0,91,0.00,,---,0.00,0.00,VWS V14.01,2013-04-09 07:05:00,
2013-04-09 03:10:00,59.1,56.5,30.13,SE,146,0.0,0.0,91,0.00,,---,0.00,0.00,VWS V14.01,2013-04-09 07:10:00,
2013-04-09 03:15:00,58.8,56.2,30.13,SE,146,0.0,0.0,91,0.00,,---,0.00,0.00,VWS V14.01,2013-04-09 07:15:00,
2013-04-09 03:20:00,58.5,55.9,30.12,SE,146,0.0,0.0,91,0.00,,---,0.00,0.00,VWS V14.01,2013-04-09 07:20:00,
2013-04-09 03:25:00,58.2,55.3,30.12,SE,146,0.0,0.0,90,0.00,,---,0.00,0.00,VWS V14.01,2013-04-09 07:25:00,
2013-04-09 03:30:00,57.9,55.3,30.12,SE,146,0.0,0.0,91,0.00,,---,0.00,0.00,VWS V14.01,2013-04-09 07:30:00,
2013-04-09 03:35:00,57.7,55.1,30.12,SE,146,0.0,0.0,91,0.00,,---,0.00,0.00,VWS V14.01,2013-04-09 07:35:00,
2013-04-09 03:40:00,57.5,54.9,30.12,SE,146,0.0,0.0,91,0.00,,---,0.00,0.00,VWS V14.01,2013-04-09 07:40:00,
2013-04-09 03:45:00,57.3,54.7,30.12,SE,146,0.0,0.0,91,0.00,,---,0.00,0.00,VWS V14.01,2013-04-09 07:45:00,
2013-04-09 03:50:00,57.2,54.6,30.12,SE,146,0.0,0.0,91,0.00,,---,0.00,0.00,VWS V14.01,2013-04-09 07:50:00,
2013-04-09 03:56:00,57.0,54.4,30.12,SE,146,0.0,0.0,91,0.00,,---,0.00,0.00,VWS V14.01,2013-04-09 07:56:00,
2013-04-09 04:01:00,56.8,54.2,30.12,SE,146,0.0,0.0,91,0.00,,---,0.00,0.00,VWS V14.01,2013-04-09 08:01:00,
2013-04-09 04:06:00,56.6,54.0,30.13,SE,146,0.0,0.0,91,0.00,,---,0.00,0.00,VWS V14.01,2013-04-09 08:06:00,
2013-04-09 04:11:00,56.5,53.9,30.13,SE,146,0.0,0.0,91,0.00,,---,0.00,0.00,VWS V14.01,2013-04-09 08:11:00,
2013-04-09 04:16:00,56.4,53.8,30.12,SE,146,0.0,0.0,91,0.00,,---,0.00,0.00,VWS V14.01,2013-04-09 08:16:00,
2013-04-09 04:21:00,56.3,53.7,30.12,SE,146,0.0,0.0,91,0.00,,---,0.00,0.00,VWS V14.01,2013-04-09 08:21:00,
2013-04-09 04:26:00,56.1,53.5,30.13,SE,146,0.0,0.0,91,0.00,,---,0.00,0.00,VWS V14.01,2013-04-09 08:26:00,
2013-04-09 04:31:00,55.9,53.3,30.13,SE,146,0.0,0.0,91,0.00,,---,0.00,0.00,VWS V14.01,2013-04-09 08:31:00,
2013-04-09 04:36:00,55.8,53.2,30.14,SE,146,0.0,0.0,91,0.00,,---,0.00,0.00,VWS V14.01,2013-04-09 08:36:00,
2013-04-09 04:42:00,55.7,53.4,30.13,SE,146,0.0,0.0,92,0.00,,---,0.00,0.00,VWS V14.01,2013-04-09 08:42:00,
2013-04-09 04:47:00,55.6,53.3,30.13,SE,146,0.0,0.0,92,0.00,,---,0.00,0.00,VWS V14.01,2013-04-09 08:47:00,
2013-04-09 04:52:00,55.5,53.2,30.13,SE,146,0.0,0.0,92,0.00,,---,0.00,0.00,VWS V14.01,2013-04-09 08:52:00,
2013-04-09 04:57:00,55.5,53.2,30.13,SE,146,0.0,0.0,92,0.00,,---,0.00,0.00,VWS V14.01,2013-04-09 08:57:00,
2013-04-09 05:02:00,55.4,53.4,30.13,SE,146,0.0,0.0,93,0.00,,---,0.00,0.00,VWS V14.01,2013-04-09 09:02:00,
2013-04-09 05:08:00,55.3,53.3,30.13,SE,146,0.0,0.0,93,0.00,,---,0.00,0.00,VWS V14.01,2013-04-09 09:08:00,
2013-04-09 05:13:00,55.0,53.0,30.13,SE,146,0.0,0.0,93,0.00,,---,0.00,0.00,VWS V14.01,2013-04-09 09:13:00,
2013-04-09 05:18:00,54.9,52.6,30.14,SE,146,0.0,0.0,92,0.00,,---,0.00,0.00,VWS V14.01,2013-04-09 09:18:00,
2013-04-09 05:23:00,54.8,52.8,30.14,SE,146,0.0,0.0,93,0.00,,---,0.00,0.00,VWS V14.01,2013-04-09 09:23:00,
2013-04-09 05:28:00,54.7,52.7,30.14,SE,146,0.0,0.0,93,0.00,,---,0.00,0.00,VWS V14.01,2013-04-09 09:28:00,
2013-04-09 05:33:00,54.5,52.5,30.14,SE,146,0.0,0.0,93,0.00,,---,0.00,0.00,VWS V14.01,2013-04-09 09:33:00,
2013-04-09 05:38:00,54.4,52.4,30.14,SE,146,0.0,0.0,93,0.00,,---,0.00,0.00,VWS V14.01,2013-04-09 09:38:00,
2013-04-09 05:44:00,54.1,52.1,30.14,SE,146,0.0,0.0,93,0.00,,---,0.00,0.00,VWS V14.01,2013-04-09 09:44:00,
2013-04-09 05:49:00,54.0,52.0,30.14,SE,146,0.0,0.0,93,0.00,,---,0.00,0.00,VWS V14.01,2013-04-09 09:49:00,
2013-04-09 05:54:00,54.0,52.0,30.14,SE,146,0.0,0.0,93,0.00,,---,0.00,0.00,VWS V14.01,2013-04-09 09:54:00,
2013-04-09 05:59:00,53.9,51.9,30.15,SE,146,0.0,0.0,93,0.00,,---,0.00,0.00,VWS V14.01,2013-04-09 09:59:00,
2013-04-09 06:04:00,53.8,51.8,30.15,SE,146,0.0,0.0,93,0.00,,---,0.00,0.00,VWS V14.01,2013-04-09 10:04:00,
2013-04-09 06:10:00,53.8,51.8,30.15,SE,146,0.0,0.0,93,0.00,,---,0.00,0.00,VWS V14.01,2013-04-09 10:10:00,
2013-04-09 06:15:00,53.7,51.7,30.15,SE,146,0.0,0.0,93,0.00,,---,0.00,0.00,VWS V14.01,2013-04-09 10:15:00,
2013-04-09 06:20:00,53.7,51.7,30.15,SE,146,0.0,0.0,93,0.00,,---,0.00,0.00,VWS V14.01,2013-04-09 10:20:00,
2013-04-09 06:26:00,53.6,51.6,30.15,SE,146,0.0,0.0,93,0.00,,---,0.00,0.00,VWS V14.01,2013-04-09 10:26:00,
2013-04-09 06:31:00,53.6,51.6,30.16,SE,146,0.0,0.0,93,0.00,,---,0.00,0.00,VWS V14.01,2013-04-09 10:31:00,
2013-04-09 06:36:00,53.5,51.5,30.16,SE,146,0.0,0.0,93,0.00,,---,0.00,0.00,VWS V14.01,2013-04-09 10:36:00,
2013-04-09 06:42:00,53.3,51.3,30.16,SE,146,0.0,0.0,93,0.00,,---,0.00,0.00,VWS V14.01,2013-04-09 10:42:00,
2013-04-09 06:47:00,53.2,51.2,30.16,SE,146,0.0,0.0,93,0.00,,---,0.00,0.00,VWS V14.01,2013-04-09 10:47:00,
2013-04-09 06:52:00,53.0,51.0,30.16,SE,146,0.0,0.0,93,0.00,,---,0.00,0.00,VWS V14.01,2013-04-09 10:52:00,
2013-04-09 06:57:00,52.9,50.9,30.16,SE,146,0.0,0.0,93,0.00,,---,0.00,0.00,VWS V14.01,2013-04-09 10:57:00,
2013-04-09 07:02:00,52.9,50.9,30.17,SE,146,0.0,0.0,93,0.00,,---,0.00,5.00,VWS V14.01,2013-04-09 11:02:00,
2013-04-09 07:07:00,52.8,51.1,30.17,SE,146,0.0,0.0,94,0.00,,---,0.00,7.00,VWS V14.01,2013-04-09 11:07:00,
2013-04-09 07:12:00,52.8,51.1,30.17,SE,146,1.0,1.0,94,0.00,,---,0.00,11.00,VWS V14.01,2013-04-09 11:12:00,
2013-04-09 07:17:00,52.7,51.0,30.17,SE,146,0.0,0.0,94,0.00,,---,0.00,16.00,VWS V14.01,2013-04-09 11:17:00,
2013-04-09 07:22:00,52.7,51.0,30.18,SE,146,0.0,1.0,94,0.00,,---,0.00,18.00,VWS V14.01,2013-04-09 11:22:00,
2013-04-09 07:27:00,52.7,51.0,30.18,SE,146,0.0,0.0,94,0.00,,---,0.00,18.00,VWS V14.01,2013-04-09 11:27:00,
2013-04-09 07:33:00,52.7,51.0,30.18,SE,146,0.0,0.0,94,0.00,,---,0.00,25.00,VWS V14.01,2013-04-09 11:33:00,
2013-04-09 07:38:00,52.7,51.0,30.18,SE,146,0.0,0.0,94,0.00,,---,0.00,30.00,VWS V14.01,2013-04-09 11:38:00,
2013-04-09 07:43:00,52.7,51.0,30.18,SE,146,0.0,0.0,94,0.00,,---,0.00,37.00,VWS V14.01,2013-04-09 11:43:00,
2013-04-09 07:48:00,52.7,51.0,30.19,SE,146,0.0,0.0,94,0.00,,---,0.00,51.00,VWS V14.01,2013-04-09 11:48:00,
2013-04-09 07:53:00,53.0,51.6,30.19,SE,146,0.0,1.0,95,0.00,,---,0.00,67.00,VWS V14.01,2013-04-09 11:53:00,
2013-04-09 07:58:00,53.2,51.8,30.19,SE,146,0.0,0.0,95,0.00,,---,0.00,90.00,VWS V14.01,2013-04-09 11:58:00,
2013-04-09 08:04:00,53.6,52.2,30.19,SE,146,0.0,0.0,95,0.00,,---,0.00,111.00,VWS V14.01,2013-04-09 12:04:00,
2013-04-09 08:09:00,53.9,52.5,30.19,SE,146,0.0,0.0,95,0.00,,---,0.00,127.00,VWS V14.01,2013-04-09 12:09:00,
2013-04-09 08:14:00,54.1,52.7,30.19,SE,146,0.0,0.0,95,0.00,,---,0.00,132.00,VWS V14.01,2013-04-09 12:14:00,
2013-04-09 08:19:00,54.5,53.1,30.20,SE,146,0.0,0.0,95,0.00,,---,0.00,128.00,VWS V14.01,2013-04-09 12:19:00,
2013-04-09 08:24:00,55.0,53.6,30.20,SE,146,0.0,0.0,95,0.00,,---,0.00,142.00,VWS V14.01,2013-04-09 12:24:00,
2013-04-09 08:30:00,55.6,54.5,30.20,SE,146,0.0,0.0,96,0.00,,---,0.00,171.00,VWS V14.01,2013-04-09 12:30:00,
2013-04-09 08:35:00,56.4,55.3,30.20,SE,146,0.0,0.0,96,0.00,,---,0.00,199.00,VWS V14.01,2013-04-09 12:35:00,
2013-04-09 08:40:00,57.2,56.1,30.20,SE,146,0.0,0.0,96,0.00,,---,0.00,211.00,VWS V14.01,2013-04-09 12:40:00,
2013-04-09 08:45:00,58.0,56.9,30.20,SE,146,0.0,0.0,96,0.00,,---,0.00,227.00,VWS V14.01,2013-04-09 12:45:00,
2013-04-09 08:50:00,58.8,57.7,30.20,SE,146,0.0,0.0,96,0.00,,---,0.00,244.00,VWS V14.01,2013-04-09 12:50:00,
2013-04-09 08:55:00,59.6,58.5,30.20,SE,146,0.0,0.0,96,0.00,,---,0.00,262.00,VWS V14.01,2013-04-09 12:55:00,
2013-04-09 09:00:00,60.3,59.2,30.20,SE,146,0.0,1.0,96,0.00,,---,0.00,283.00,VWS V14.01,2013-04-09 13:00:00,
2013-04-09 09:05:00,61.2,60.3,30.20,SSE,147,0.0,0.0,97,0.00,,---,0.00,309.00,VWS V14.01,2013-04-09 13:05:00,
2013-04-09 09:11:00,62.0,61.1,30.20,SSE,166,2.0,2.0,97,0.00,,---,0.00,329.00,VWS V14.01,2013-04-09 13:11:00,
2013-04-09 09:16:00,62.6,61.7,30.20,SSW,197,0.0,4.0,97,0.00,,---,0.00,348.00,VWS V14.01,2013-04-09 13:16:00,
2013-04-09 09:21:00,63.0,61.8,30.20,SSW,202,3.0,5.0,96,0.00,,---,0.00,390.00,VWS V14.01,2013-04-09 13:21:00,
2013-04-09 09:26:00,63.4,62.2,30.20,SSW,204,0.0,0.0,96,0.00,,---,0.00,420.00,VWS V14.01,2013-04-09 13:26:00,
2013-04-09 09:31:00,63.8,62.6,30.21,SW,217,3.0,5.0,96,0.00,,---,0.00,445.00,VWS V14.01,2013-04-09 13:31:00,
2013-04-09 09:37:00,64.3,63.1,30.21,SSW,205,0.0,0.0,96,0.00,,---,0.00,476.00,VWS V14.01,2013-04-09 13:37:00,
2013-04-09 09:42:00,65.0,63.5,30.21,SSW,202,0.0,1.0,95,0.00,,---,0.00,501.00,VWS V14.01,2013-04-09 13:42:00,
2013-04-09 09:47:00,65.7,63.9,30.21,SW,215,6.0,7.0,94,0.00,,---,0.00,520.00,VWS V14.01,2013-04-09 13:47:00,
2013-04-09 09:52:00,66.3,64.2,30.21,SSW,213,0.0,5.0,93,0.00,,---,0.00,545.00,VWS V14.01,2013-04-09 13:52:00,
2013-04-09 09:57:00,67.0,64.6,30.21,SSW,196,3.0,4.0,92,0.00,,---,0.00,561.00,VWS V14.01,2013-04-09 13:57:00,
2013-04-09 10:02:00,67.9,64.5,30.21,SSW,200,0.0,1.0,89,0.00,,---,0.00,580.00,VWS V14.01,2013-04-09 14:02:00,
2013-04-09 10:07:00,68.8,64.8,30.21,SSW,206,1.0,4.0,87,0.00,,---,0.00,594.00,VWS V14.01,2013-04-09 14:07:00,
2013-04-09 10:12:00,69.4,64.7,30.21,SSW,211,5.0,5.0,85,0.00,,---,0.00,610.00,VWS V14.01,2013-04-09 14:12:00,
2013-04-09 10:17:00,70.2,65.5,30.21,SW,214,5.0,7.0,85,0.00,,---,0.00,629.00,VWS V14.01,2013-04-09 14:17:00,
2013-04-09 10:22:00,71.1,65.7,30.21,SSW,202,5.0,6.0,83,0.00,,---,0.00,640.00,VWS V14.01,2013-04-09 14:22:00,
2013-04-09 10:27:00,71.7,65.6,30.21,SW,226,0.0,5.0,81,0.00,,---,0.00,656.00,VWS V14.01,2013-04-09 14:27:00,
2013-04-09 10:32:00,72.3,65.1,30.22,SW,235,4.0,6.0,78,0.00,,---,0.00,673.00,VWS V14.01,2013-04-09 14:32:00,
2013-04-09 10:37:00,72.8,64.8,30.22,SSW,200,6.0,8.0,76,0.00,,---,0.00,689.00,VWS V14.01,2013-04-09 14:37:00,
2013-04-09 10:43:00,73.4,65.0,30.21,SW,232,6.0,6.0,75,0.00,,---,0.00,705.00,VWS V14.01,2013-04-09 14:43:00,
2013-04-09 10:48:00,73.9,64.7,30.21,SSW,208,0.0,7.0,73,0.00,,---,0.00,717.00,VWS V14.01,2013-04-09 14:48:00,
2013-04-09 10:53:00,74.3,65.1,30.21,SW,224,8.0,11.0,73,0.00,,---,0.00,729.00,VWS V14.01,2013-04-09 14:53:00,
2013-04-09 10:58:00,74.6,64.6,30.22,WSW,242,5.0,7.0,71,0.00,,---,0.00,747.00,VWS V14.01,2013-04-09 14:58:00,
2013-04-09 11:03:00,75.0,65.4,30.22,SSW,204,9.0,9.0,72,0.00,,---,0.00,761.00,VWS V14.01,2013-04-09 15:03:00,
2013-04-09 11:08:00,75.4,65.3,30.22,WSW,250,0.0,1.0,71,0.00,,---,0.00,773.00,VWS V14.01,2013-04-09 15:08:00,
2013-04-09 11:13:00,76.0,65.1,30.21,SSW,209,3.0,6.0,69,0.00,,---,0.00,768.00,VWS V14.01,2013-04-09 15:13:00,
2013-04-09 11:18:00,76.5,65.2,30.22,SW,236,0.0,5.0,68,0.00,,---,0.00,749.00,VWS V14.01,2013-04-09 15:18:00,
2013-04-09 11:23:00,76.7,64.9,30.22,SSW,211,7.0,7.0,67,0.00,,---,0.00,763.00,VWS V14.01,2013-04-09 15:23:00,
2013-04-09 11:29:00,77.0,64.8,30.22,WSW,242,5.0,6.0,66,0.00,,---,0.00,800.00,VWS V14.01,2013-04-09 15:29:00,
2013-04-09 11:34:00,77.3,64.2,30.21,WSW,244,0.0,6.0,64,0.00,,---,0.00,828.00,VWS V14.01,2013-04-09 15:34:00,
2013-04-09 11:39:00,77.6,64.9,30.21,SW,236,0.0,7.0,65,0.00,,---,0.00,826.00,VWS V14.01,2013-04-09 15:39:00,
2013-04-09 11:44:00,78.0,65.7,30.21,SSW,205,0.0,3.0,66,0.00,,---,0.00,733.00,VWS V14.01,2013-04-09 15:44:00,
2013-04-09 11:49:00,78.4,63.4,30.21,West,275,6.0,7.0,60,0.00,,---,0.00,671.00,VWS V14.01,2013-04-09 15:49:00,
2013-04-09 11:55:00,78.6,64.5,30.22,WSW,257,3.0,8.0,62,0.00,,---,0.00,682.00,VWS V14.01,2013-04-09 15:55:00,
2013-04-09 12:00:00,79.2,64.6,30.21,South,170,0.0,6.0,61,0.00,,---,0.00,795.00,VWS V14.01,2013-04-09 16:00:00,
2013-04-09 12:05:00,79.8,63.7,30.21,SSE,165,0.0,8.0,58,0.00,,---,0.00,865.00,VWS V14.01,2013-04-09 16:05:00,
2013-04-09 12:10:00,80.3,63.2,30.20,SSE,168,6.0,8.0,56,0.00,,---,0.00,895.00,VWS V14.01,2013-04-09 16:10:00,
2013-04-09 12:15:00,80.8,63.7,30.20,SSE,163,0.0,8.0,56,0.00,,---,0.00,902.00,VWS V14.01,2013-04-09 16:15:00,
2013-04-09 12:21:00,80.7,62.5,30.20,SW,230,6.0,8.0,54,0.00,,---,0.00,909.00,VWS V14.01,2013-04-09 16:21:00,
2013-04-09 12:26:00,80.7,64.1,30.20,ESE,109,4.0,4.0,57,0.00,,---,0.00,918.00,VWS V14.01,2013-04-09 16:26:00,
2013-04-09 12:31:00,81.2,62.5,30.20,SW,215,11.0,11.0,53,0.00,,---,0.00,925.00,VWS V14.01,2013-04-09 16:31:00,
2013-04-09 12:36:00,81.4,61.5,30.20,SE,126,7.0,10.0,51,0.00,,---,0.00,933.00,VWS V14.01,2013-04-09 16:36:00,
2013-04-09 12:41:00,81.4,63.2,30.20,SSW,210,3.0,10.0,54,0.00,,---,0.00,954.00,VWS V14.01,2013-04-09 16:41:00,
2013-04-09 12:46:00,81.7,63.5,30.20,SW,225,5.0,7.0,54,0.00,,---,0.00,970.00,VWS V14.01,2013-04-09 16:46:00,
2013-04-09 12:51:00,82.0,62.7,30.19,SSW,209,6.0,7.0,52,0.00,,---,0.00,993.00,VWS V14.01,2013-04-09 16:51:00,
2013-04-09 12:56:00,82.1,63.3,30.20,SW,234,3.0,9.0,53,0.00,,---,0.00,979.00,VWS V14.01,2013-04-09 16:56:00,
2013-04-09 13:02:00,81.4,64.2,30.19,WSW,256,6.0,8.0,56,0.00,,---,0.00,1037.00,VWS V14.01,2013-04-09 17:02:00,
2013-04-09 13:07:00,81.4,62.6,30.19,SSE,161,0.0,6.0,53,0.00,,---,0.00,1093.00,VWS V14.01,2013-04-09 17:07:00,
2013-04-09 13:12:00,81.3,63.1,30.19,SW,214,6.0,9.0,54,0.00,,---,0.00,332.00,VWS V14.01,2013-04-09 17:12:00,
2013-04-09 13:17:00,81.3,63.1,30.18,South,190,5.0,6.0,54,0.00,,---,0.00,1083.00,VWS V14.01,2013-04-09 17:17:00,
2013-04-09 13:22:00,82.0,61.5,30.18,SSW,212,6.0,7.0,50,0.00,,---,0.00,1060.00,VWS V14.01,2013-04-09 17:22:00,
2013-04-09 13:27:00,81.9,61.5,30.18,SE,136,6.0,8.0,50,0.00,,---,0.00,274.00,VWS V14.01,2013-04-09 17:27:00,
2013-04-09 13:32:00,81.7,62.9,30.18,SSW,207,0.0,8.0,53,0.00,,---,0.00,923.00,VWS V14.01,2013-04-09 17:32:00,
2013-04-09 13:38:00,81.7,61.8,30.18,SSW,200,3.0,4.0,51,0.00,,---,0.00,1099.00,VWS V14.01,2013-04-09 17:38:00,
2013-04-09 13:43:00,81.9,62.6,30.18,SW,216,4.0,9.0,52,0.00,,---,0.00,1092.00,VWS V14.01,2013-04-09 17:43:00,
2013-04-09 13:48:00,82.5,62.0,30.17,SW,229,6.0,10.0,50,0.00,,---,0.00,1111.00,VWS V14.01,2013-04-09 17:48:00,
2013-04-09 13:53:00,83.2,63.8,30.17,SW,215,7.0,8.0,52,0.00,,---,0.00,1141.00,VWS V14.01,2013-04-09 17:53:00,
2013-04-09 13:58:00,83.2,62.1,30.17,SW,219,8.0,9.0,49,0.00,,---,0.00,1079.00,VWS V14.01,2013-04-09 17:58:00,
2013-04-09 14:03:00,82.6,63.2,30.17,SSE,159,4.0,7.0,52,0.00,,---,0.00,1187.00,VWS V14.01,2013-04-09 18:03:00,
2013-04-09 14:09:00,82.8,61.1,30.17,SSW,203,0.0,6.0,48,0.00,,---,0.00,272.00,VWS V14.01,2013-04-09 18:09:00,
2013-04-09 14:14:00,82.3,60.7,30.17,SE,135,0.0,7.0,48,0.00,,---,0.00,336.00,VWS V14.01,2013-04-09 18:14:00,
2013-04-09 14:19:00,81.8,60.8,30.16,ENE,70,6.0,6.0,49,0.00,,---,0.00,381.00,VWS V14.01,2013-04-09 18:19:00,
2013-04-09 14:25:00,82.2,61.2,30.16,SSW,204,6.0,9.0,49,0.00,,---,0.00,346.00,VWS V14.01,2013-04-09 18:25:00,
2013-04-09 14:30:00,82.8,60.5,30.16,SE,136,6.0,6.0,47,0.00,,---,0.00,343.00,VWS V14.01,2013-04-09 18:30:00,
2013-04-09 14:35:00,83.1,62.0,30.16,SSW,194,0.0,6.0,49,0.00,,---,0.00,355.00,VWS V14.01,2013-04-09 18:35:00,
2013-04-09 14:40:00,83.1,61.4,30.16,South,185,0.0,2.0,48,0.00,,---,0.00,1120.00,VWS V14.01,2013-04-09 18:40:00,
2013-04-09 14:45:00,84.0,62.2,30.15,SSE,162,5.0,13.0,48,0.00,,---,0.00,1055.00,VWS V14.01,2013-04-09 18:45:00,
2013-04-09 14:50:00,84.2,62.4,30.15,SSW,209,11.0,11.0,48,0.00,,---,0.00,1048.00,VWS V14.01,2013-04-09 18:50:00,
2013-04-09 14:55:00,84.1,60.5,30.15,WSW,245,3.0,14.0,45,0.00,,---,0.00,991.00,VWS V14.01,2013-04-09 18:55:00,
2013-04-09 15:00:00,83.9,60.9,30.15,WSW,244,3.0,4.0,46,0.00,,---,0.00,1020.00,VWS V14.01,2013-04-09 19:00:00,
2013-04-09 15:06:00,84.4,60.8,30.15,SW,233,11.0,11.0,45,0.00,,---,0.00,1007.00,VWS V14.01,2013-04-09 19:06:00,
2013-04-09 15:11:00,84.5,61.5,30.15,SSW,197,0.0,0.0,46,0.00,,---,0.00,951.00,VWS V14.01,2013-04-09 19:11:00,
2013-04-09 15:16:00,84.2,61.8,30.14,SW,222,9.0,14.0,47,0.00,,---,0.00,935.00,VWS V14.01,2013-04-09 19:16:00,
2013-04-09 15:22:00,84.0,61.0,30.14,SW,225,9.0,12.0,46,0.00,,---,0.00,909.00,VWS V14.01,2013-04-09 19:22:00,
2013-04-09 15:27:00,83.8,62.0,30.14,SW,225,4.0,7.0,48,0.00,,---,0.00,227.00,VWS V14.01,2013-04-09 19:27:00,
2013-04-09 15:32:00,83.6,61.8,30.14,SSW,210,0.0,1.0,48,0.00,,---,0.00,803.00,VWS V14.01,2013-04-09 19:32:00,
2013-04-09 15:37:00,83.9,60.9,30.13,SW,222,7.0,8.0,46,0.00,,---,0.00,751.00,VWS V14.01,2013-04-09 19:37:00,
2013-04-09 15:42:00,84.3,61.9,30.13,SSW,193,0.0,0.0,47,0.00,,---,0.00,443.00,VWS V14.01,2013-04-09 19:42:00,
2013-04-09 15:47:00,84.6,60.9,30.14,SW,224,0.0,4.0,45,0.00,,---,0.00,694.00,VWS V14.01,2013-04-09 19:47:00,
2013-04-09 15:52:00,84.5,60.8,30.13,SSE,147,10.0,10.0,45,0.00,,---,0.00,708.00,VWS V14.01,2013-04-09 19:52:00,
2013-04-09 15:57:00,84.2,61.2,30.13,SSW,205,0.0,7.0,46,0.00,,---,0.00,269.00,VWS V14.01,2013-04-09 19:57:00,
2013-04-09 16:02:00,83.9,62.7,30.13,South,175,0.0,5.0,49,0.00,,---,0.00,248.00,VWS V14.01,2013-04-09 20:02:00,
2013-04-09 16:07:00,83.9,60.9,30.13,SSE,167,0.0,5.0,46,0.00,,---,0.00,740.00,VWS V14.01,2013-04-09 20:07:00,
2013-04-09 16:13:00,83.6,60.7,30.13,SSE,161,0.0,4.0,46,0.00,,---,0.00,271.00,VWS V14.01,2013-04-09 20:13:00,
2013-04-09 16:18:00,83.5,61.2,30.12,South,191,0.0,6.0,47,0.00,,---,0.00,243.00,VWS V14.01,2013-04-09 20:18:00,
2013-04-09 16:23:00,83.1,61.4,30.12,SE,134,0.0,5.0,48,0.00,,---,0.00,237.00,VWS V14.01,2013-04-09 20:23:00,
2013-04-09 16:28:00,83.0,60.7,30.12,ESE,115,4.0,7.0,47,0.00,,---,0.00,795.00,VWS V14.01,2013-04-09 20:28:00,
2013-04-09 16:33:00,83.8,62.6,30.12,SSE,154,1.0,7.0,49,0.00,,---,0.00,759.00,VWS V14.01,2013-04-09 20:33:00,
2013-04-09 16:38:00,84.5,62.7,30.12,ESE,120,4.0,5.0,48,0.00,,---,0.00,703.00,VWS V14.01,2013-04-09 20:38:00,
2013-04-09 16:44:00,84.2,61.2,30.12,SE,132,2.0,6.0,46,0.00,,---,0.00,353.00,VWS V14.01,2013-04-09 20:44:00,
2013-04-09 16:49:00,83.7,60.7,30.12,SSE,153,0.0,6.0,46,0.00,,---,0.00,264.00,VWS V14.01,2013-04-09 20:49:00,
2013-04-09 16:54:00,83.6,61.8,30.12,SE,132,0.0,4.0,48,0.00,,---,0.00,705.00,VWS V14.01,2013-04-09 20:54:00,
2013-04-09 16:59:00,83.9,60.3,30.12,ESE,117,0.0,2.0,45,0.00,,---,0.00,643.00,VWS V14.01,2013-04-09 20:59:00,
2013-04-09 17:04:00,84.2,60.6,30.12,West,273,7.0,11.0,45,0.00,,---,0.00,598.00,VWS V14.01,2013-04-09 21:04:00,
2013-04-09 17:10:00,84.2,61.2,30.12,SSE,167,7.0,10.0,46,0.00,,---,0.00,570.00,VWS V14.01,2013-04-09 21:10:00,
2013-04-09 17:15:00,84.1,61.1,30.12,SW,230,6.0,11.0,46,0.00,,---,0.00,534.00,VWS V14.01,2013-04-09 21:15:00,
2013-04-09 17:20:00,83.8,60.8,30.12,SSW,211,4.0,11.0,46,0.00,,---,0.00,492.00,VWS V14.01,2013-04-09 21:20:00,
2013-04-09 17:25:00,83.4,61.7,30.12,SSW,206,0.0,6.0,48,0.00,,---,0.00,98.00,VWS V14.01,2013-04-09 21:25:00,
2013-04-09 17:30:00,82.8,61.7,30.11,SSW,209,0.0,6.0,49,0.00,,---,0.00,100.00,VWS V14.01,2013-04-09 21:30:00,
2013-04-09 17:35:00,82.3,60.7,30.11,South,177,2.0,3.0,48,0.00,,---,0.00,355.00,VWS V14.01,2013-04-09 21:35:00,
2013-04-09 17:41:00,82.4,60.2,30.11,SSW,199,0.0,3.0,47,0.00,,---,0.00,413.00,VWS V14.01,2013-04-09 21:41:00,
2013-04-09 17:46:00,82.6,60.9,30.11,South,169,0.0,0.0,48,0.00,,---,0.00,97.00,VWS V14.01,2013-04-09 21:46:00,
2013-04-09 17:52:00,82.4,61.3,30.11,SSW,198,0.0,0.0,49,0.00,,---,0.00,376.00,VWS V14.01,2013-04-09 21:52:00,
2013-04-09 17:57:00,82.5,60.8,30.11,SE,143,0.0,0.0,48,0.00,,---,0.00,376.00,VWS V14.01,2013-04-09 21:57:00,
2013-04-09 18:02:00,83.0,61.3,30.11,SSE,149,0.0,4.0,48,0.00,,---,0.00,339.00,VWS V14.01,2013-04-09 22:02:00,
2013-04-09 18:07:00,83.2,60.9,30.11,SSE,151,2.0,4.0,47,0.00,,---,0.00,311.00,VWS V14.01,2013-04-09 22:07:00,
2013-04-09 18:12:00,83.3,61.0,30.11,South,175,0.0,10.0,47,0.00,,---,0.00,290.00,VWS V14.01,2013-04-09 22:12:00,
2013-04-09 18:17:00,83.2,60.9,30.11,South,171,6.0,8.0,47,0.00,,---,0.00,272.00,VWS V14.01,2013-04-09 22:17:00,
2013-04-09 18:23:00,83.2,61.5,30.11,SSW,204,4.0,4.0,48,0.00,,---,0.00,248.00,VWS V14.01,2013-04-09 22:23:00,
2013-04-09 18:28:00,83.1,61.4,30.11,SW,215,1.0,3.0,48,0.00,,---,0.00,230.00,VWS V14.01,2013-04-09 22:28:00,
2013-04-09 18:33:00,83.1,60.8,30.11,SSW,209,1.0,6.0,47,0.00,,---,0.00,202.00,VWS V14.01,2013-04-09 22:33:00,
2013-04-09 18:38:00,83.0,61.3,30.11,SSE,149,0.0,6.0,48,0.00,,---,0.00,181.00,VWS V14.01,2013-04-09 22:38:00,
2013-04-09 18:43:00,82.8,61.1,30.11,South,190,0.0,1.0,48,0.00,,---,0.00,163.00,VWS V14.01,2013-04-09 22:43:00,
2013-04-09 18:48:00,82.8,61.1,30.11,South,189,0.0,2.0,48,0.00,,---,0.00,144.00,VWS V14.01,2013-04-09 22:48:00,
2013-04-09 18:53:00,82.7,61.6,30.12,South,171,1.0,4.0,49,0.00,,---,0.00,118.00,VWS V14.01,2013-04-09 22:53:00,
2013-04-09 18:59:00,82.5,61.4,30.12,SSW,209,0.0,5.0,49,0.00,,---,0.00,113.00,VWS V14.01,2013-04-09 22:59:00,
2013-04-09 19:04:00,82.4,61.3,30.12,South,188,0.0,0.0,49,0.00,,---,0.00,97.00,VWS V14.01,2013-04-09 23:04:00,
2013-04-09 19:09:00,82.2,61.7,30.12,South,183,0.0,1.0,50,0.00,,---,0.00,81.00,VWS V14.01,2013-04-09 23:09:00,
2013-04-09 19:14:00,81.9,61.5,30.12,South,183,0.0,3.0,50,0.00,,---,0.00,63.00,VWS V14.01,2013-04-09 23:14:00,
2013-04-09 19:19:00,81.7,61.3,30.11,South,173,0.0,1.0,50,0.00,,---,0.00,51.00,VWS V14.01,2013-04-09 23:19:00,
2013-04-09 19:24:00,81.5,61.7,30.11,South,171,0.0,1.0,51,0.00,,---,0.00,37.00,VWS V14.01,2013-04-09 23:24:00,
2013-04-09 19:29:00,81.2,61.4,30.12,SSE,161,0.0,1.0,51,0.00,,---,0.00,28.00,VWS V14.01,2013-04-09 23:29:00,
2013-04-09 19:35:00,80.9,61.1,30.12,SSE,161,0.0,0.0,51,0.00,,---,0.00,21.00,VWS V14.01,2013-04-09 23:35:00,
2013-04-09 19:40:00,80.7,61.5,30.12,SSE,161,0.0,1.0,52,0.00,,---,0.00,14.00,VWS V14.01,2013-04-09 23:40:00,
2013-04-09 19:45:00,80.3,62.2,30.12,SSE,161,0.0,0.0,54,0.00,,---,0.00,7.00,VWS V14.01,2013-04-09 23:45:00,
2013-04-09 19:50:00,79.8,61.7,30.12,SSE,161,0.0,0.0,54,0.00,,---,0.00,0.00,VWS V14.01,2013-04-09 23:50:00,
2013-04-09 19:55:00,79.3,61.8,30.12,SSE,161,0.0,0.0,55,0.00,,---,0.00,0.00,VWS V14.01,2013-04-09 23:55:00,
2013-04-09 20:00:00,78.7,61.7,30.12,SSE,161,0.0,0.0,56,0.00,,---,0.00,0.00,VWS V14.01,2013-04-10 00:00:00,
2013-04-09 20:05:00,78.1,61.6,30.12,SSE,161,0.0,0.0,57,0.00,,---,0.00,0.00,VWS V14.01,2013-04-10 00:05:00,
2013-04-09 20:10:00,77.5,61.1,30.12,SSE,161,0.0,0.0,57,0.00,,---,0.00,0.00,VWS V14.01,2013-04-10 00:10:00,
2013-04-09 20:15:00,76.8,60.9,30.12,SSE,161,0.0,0.0,58,0.00,,---,0.00,0.00,VWS V14.01,2013-04-10 00:15:00,
2013-04-09 20:21:00,76.3,60.9,30.12,SSE,161,0.0,0.0,59,0.00,,---,0.00,0.00,VWS V14.01,2013-04-10 00:21:00,
2013-04-09 20:26:00,75.8,60.9,30.12,SSE,161,0.0,0.0,60,0.00,,---,0.00,0.00,VWS V14.01,2013-04-10 00:26:00,
2013-04-09 20:31:00,75.4,61.0,30.13,SSE,161,0.0,0.0,61,0.00,,---,0.00,0.00,VWS V14.01,2013-04-10 00:31:00,
2013-04-09 20:36:00,75.0,61.1,30.13,SSE,161,0.0,0.0,62,0.00,,---,0.00,0.00,VWS V14.01,2013-04-10 00:36:00,
2013-04-09 20:41:00,74.5,60.6,30.13,SSE,161,0.0,0.0,62,0.00,,---,0.00,0.00,VWS V14.01,2013-04-10 00:41:00,
2013-04-09 20:46:00,74.1,60.7,30.13,SSE,161,0.0,0.0,63,0.00,,---,0.00,0.00,VWS V14.01,2013-04-10 00:46:00,
2013-04-09 20:51:00,73.7,60.8,30.13,SSE,161,0.0,0.0,64,0.00,,---,0.00,0.00,VWS V14.01,2013-04-10 00:51:00,
2013-04-09 20:56:00,73.3,60.8,30.12,SSE,161,0.0,0.0,65,0.00,,---,0.00,0.00,VWS V14.01,2013-04-10 00:56:00,
2013-04-09 21:01:00,72.9,60.9,30.13,SSE,161,0.0,0.0,66,0.00,,---,0.00,0.00,VWS V14.01,2013-04-10 01:01:00,
2013-04-09 21:07:00,72.5,60.5,30.13,SSE,161,0.0,0.0,66,0.00,,---,0.00,0.00,VWS V14.01,2013-04-10 01:07:00,
2013-04-09 21:12:00,72.1,60.5,30.13,SSE,161,0.0,0.0,67,0.00,,---,0.00,0.00,VWS V14.01,2013-04-10 01:12:00,
2013-04-09 21:17:00,71.8,60.7,30.13,SSE,161,1.0,2.0,68,0.00,,---,0.00,0.00,VWS V14.01,2013-04-10 01:17:00,
2013-04-09 21:22:00,71.5,60.4,30.14,SSE,161,0.0,4.0,68,0.00,,---,0.00,0.00,VWS V14.01,2013-04-10 01:22:00,
2013-04-09 21:27:00,71.3,60.6,30.14,SSE,156,0.0,0.0,69,0.00,,---,0.00,0.00,VWS V14.01,2013-04-10 01:27:00,
2013-04-09 21:33:00,71.3,61.0,30.14,SSE,155,0.0,1.0,70,0.00,,---,0.00,0.00,VWS V14.01,2013-04-10 01:33:00,
2013-04-09 21:38:00,71.2,61.3,30.14,SSE,155,0.0,0.0,71,0.00,,---,0.00,0.00,VWS V14.01,2013-04-10 01:38:00,
2013-04-09 21:43:00,71.2,61.3,30.14,SSE,155,1.0,2.0,71,0.00,,---,0.00,0.00,VWS V14.01,2013-04-10 01:43:00,
2013-04-09 21:48:00,71.1,61.6,30.14,SSE,155,0.0,1.0,72,0.00,,---,0.00,0.00,VWS V14.01,2013-04-10 01:48:00,
2013-04-09 21:53:00,70.9,61.8,30.14,SSE,155,0.0,1.0,73,0.00,,---,0.00,0.00,VWS V14.01,2013-04-10 01:53:00,
2013-04-09 21:59:00,70.9,62.2,30.14,SSE,155,1.0,4.0,74,0.00,,---,0.00,0.00,VWS V14.01,2013-04-10 01:59:00,
2013-04-09 22:04:00,70.7,62.4,30.14,SSE,155,0.0,1.0,75,0.00,,---,0.00,0.00,VWS V14.01,2013-04-10 02:04:00,
2013-04-09 22:09:00,70.6,62.3,30.14,SE,146,0.0,0.0,75,0.00,,---,0.00,0.00,VWS V14.01,2013-04-10 02:09:00,
2013-04-09 22:14:00,70.4,62.5,30.14,SSE,155,0.0,5.0,76,0.00,,---,0.00,0.00,VWS V14.01,2013-04-10 02:14:00,
2013-04-09 22:19:00,70.3,62.4,30.15,South,174,4.0,4.0,76,0.00,,---,0.00,0.00,VWS V14.01,2013-04-10 02:19:00,
2013-04-09 22:24:00,70.2,62.7,30.15,South,174,0.0,2.0,77,0.00,,---,0.00,0.00,VWS V14.01,2013-04-10 02:24:00,
2013-04-09 22:29:00,70.1,62.9,30.15,South,176,2.0,5.0,78,0.00,,---,0.00,0.00,VWS V14.01,2013-04-10 02:29:00,
2013-04-09 22:34:00,70.0,62.8,30.14,South,173,0.0,4.0,78,0.00,,---,0.00,0.00,VWS V14.01,2013-04-10 02:34:00,
2013-04-09 22:39:00,69.8,63.0,30.14,South,179,0.0,5.0,79,0.00,,---,0.00,0.00,VWS V14.01,2013-04-10 02:39:00,
2013-04-09 22:44:00,69.7,62.9,30.14,SSE,165,0.0,6.0,79,0.00,,---,0.00,0.00,VWS V14.01,2013-04-10 02:44:00,
2013-04-09 22:50:00,69.6,62.8,30.15,SSE,165,0.0,6.0,79,0.00,,---,0.00,0.00,VWS V14.01,2013-04-10 02:50:00,
2013-04-09 22:55:00,69.5,63.1,30.14,SSE,163,1.0,5.0,80,0.00,,---,0.00,0.00,VWS V14.01,2013-04-10 02:55:00,
2013-04-09 23:00:00,69.4,63.0,30.14,SSE,161,0.0,4.0,80,0.00,,---,0.00,0.00,VWS V14.01,2013-04-10 03:00:00,
2013-04-09 23:05:00,69.3,62.9,30.14,SSE,161,0.0,1.0,80,0.00,,---,0.00,0.00,VWS V14.01,2013-04-10 03:05:00,
2013-04-09 23:10:00,69.2,62.8,30.14,SSE,161,0.0,1.0,80,0.00,,---,0.00,0.00,VWS V14.01,2013-04-10 03:10:00,
2013-04-09 23:15:00,69.0,62.6,30.14,SSE,150,0.0,5.0,80,0.00,,---,0.00,0.00,VWS V14.01,2013-04-10 03:15:00,
2013-04-09 23:20:00,68.9,62.8,30.14,SSE,154,0.0,2.0,81,0.00,,---,0.00,0.00,VWS V14.01,2013-04-10 03:20:00,
2013-04-09 23:25:00,68.7,62.6,30.14,SSE,152,0.0,4.0,81,0.00,,---,0.00,0.00,VWS V14.01,2013-04-10 03:25:00,
2013-04-09 23:30:00,68.6,62.5,30.14,South,185,0.0,1.0,81,0.00,,---,0.00,0.00,VWS V14.01,2013-04-10 03:30:00,
2013-04-09 23:36:00,68.4,62.7,30.14,South,184,0.0,2.0,82,0.00,,---,0.00,0.00,VWS V14.01,2013-04-10 03:36:00,
2013-04-09 23:41:00,68.2,62.5,30.14,South,184,0.0,3.0,82,0.00,,---,0.00,0.00,VWS V14.01,2013-04-10 03:41:00,
2013-04-09 23:46:00,68.1,62.4,30.14,South,183,0.0,1.0,82,0.00,,---,0.00,0.00,VWS V14.01,2013-04-10 03:46:00,
2013-04-09 23:51:00,67.9,62.5,30.13,South,181,2.0,3.0,83,0.00,,---,0.00,0.00,VWS V14.01,2013-04-10 03:51:00,
2013-04-09 23:56:00,67.8,62.5,30.13,SSW,202,0.0,4.0,83,0.00,,---,0.00,0.00,VWS V14.01,2013-04-10 03:56:00,